createdAt,value
2022-10-22T00:01:04.711Z,45.38
2022-10-22T00:03:31.779Z,57.25
2022-10-22T00:05:58.717Z,47.60
2022-10-22T00:08:25.551Z,38.50
2022-10-22T00:10:52.866Z,49.13
2022-10-22T00:13:20.266Z,40.08
2022-10-22T00:15:46.935Z,53.65
2022-10-22T00:18:14.498Z,52.85
2022-10-22T00:20:41.092Z,43.67
2022-10-22T00:23:07.867Z,45.25
2022-10-22T00:25:35.982Z,45.05
2022-10-22T00:28:03.181Z,44.33
2022-10-22T00:30:29.852Z,47.13
2022-10-22T00:32:56.508Z,42.67
2022-10-22T00:35:23.217Z,57.67
2022-10-22T00:37:49.887Z,50.50
2022-10-22T00:40:16.513Z,52.67
2022-10-22T00:42:43.413Z,36.40
2022-10-22T00:45:10.257Z,36.65
2022-10-22T00:47:45.256Z,52.15
2022-10-22T00:52:41.112Z,49.20
2022-10-22T00:55:08.686Z,51.15
2022-10-22T00:57:36.592Z,43.80
2022-10-22T01:00:05.554Z,45.55
2022-10-22T01:02:32.322Z,38.28
2022-10-22T01:04:58.981Z,41.88
2022-10-22T01:07:26.452Z,46.53
2022-10-22T01:10:04.769Z,38.00
2022-10-22T01:12:52.602Z,38.67
2022-10-22T01:15:45.825Z,36.80
2022-10-22T01:18:45.031Z,43.35
2022-10-22T01:21:31.441Z,45.67
2022-10-22T01:24:16.752Z,42.30
2022-10-22T01:27:15.457Z,40.60
2022-10-22T01:30:01.892Z,37.88
2022-10-22T01:32:31.020Z,34.88
2022-10-22T01:35:07.361Z,49.75
2022-10-22T01:37:38.863Z,32.20
2022-10-22T01:40:08.759Z,36.75
2022-10-22T01:42:35.545Z,33.75
2022-10-22T01:45:02.180Z,32.28
2022-10-22T01:47:50.494Z,29.55
2022-10-22T01:50:36.961Z,32.13
2022-10-22T01:53:40.090Z,43.72
2022-10-22T01:56:42.436Z,26.90
2022-10-22T01:59:38.056Z,39.00
2022-10-22T02:02:32.443Z,33.13
2022-10-22T02:05:07.195Z,31.88
2022-10-22T02:07:43.303Z,27.45
2022-10-22T02:10:11.830Z,37.60
2022-10-22T02:12:40.102Z,40.45
2022-10-22T02:15:09.015Z,43.10
2022-10-22T02:17:38.383Z,35.72
2022-10-22T02:20:27.938Z,44.75
2022-10-22T02:22:55.887Z,48.38
2022-10-22T02:25:25.583Z,53.55
2022-10-22T02:28:11.339Z,47.30
2022-10-22T02:30:41.124Z,39.92
2022-10-22T02:33:24.377Z,45.60
2022-10-22T02:35:51.955Z,43.05
2022-10-22T02:38:19.445Z,72.10
2022-10-22T02:40:46.869Z,55.88
2022-10-22T02:43:13.748Z,51.10
2022-10-22T02:45:40.590Z,42.90
2022-10-22T02:48:07.446Z,29.85
2022-10-22T02:50:34.248Z,33.15
2022-10-22T02:53:00.913Z,42.47
2022-10-22T02:55:27.568Z,39.53
2022-10-22T02:57:54.186Z,34.63
2022-10-22T03:00:22.016Z,43.38
2022-10-22T03:02:48.973Z,47.92
2022-10-22T03:05:15.726Z,35.05
2022-10-22T03:07:42.614Z,45.70
2022-10-22T03:10:09.797Z,49.67
2022-10-22T03:12:36.476Z,47.88
2022-10-22T03:15:03.482Z,33.67
2022-10-22T03:17:30.711Z,52.47
2022-10-22T03:19:57.337Z,41.65
2022-10-22T03:22:29.166Z,44.83
2022-10-22T03:25:00.554Z,45.38
2022-10-22T03:27:29.315Z,39.97
2022-10-22T03:29:57.963Z,41.03
2022-10-22T03:32:24.589Z,45.53
2022-10-22T03:34:51.329Z,40.60
2022-10-22T03:37:18.407Z,52.90
2022-10-22T03:39:45.298Z,39.72
2022-10-22T03:42:13.248Z,41.83
2022-10-22T03:44:40.828Z,36.13
2022-10-22T03:47:08.047Z,34.38
2022-10-22T03:49:34.678Z,32.95
2022-10-22T03:52:13.308Z,34.92
2022-10-22T03:54:40.430Z,32.88
2022-10-22T03:57:07.903Z,30.42
2022-10-22T03:59:40.180Z,28.00
2022-10-22T04:02:06.860Z,31.55
2022-10-22T04:04:33.611Z,32.25
2022-10-22T04:07:00.308Z,35.85
2022-10-22T04:09:26.960Z,33.72
2022-10-22T04:11:53.630Z,37.83
2022-10-22T04:14:20.412Z,33.65
2022-10-22T04:16:47.058Z,31.73
2022-10-22T04:19:14.560Z,27.85
2022-10-22T04:21:41.245Z,31.55
2022-10-22T04:24:08.066Z,37.42
2022-10-22T04:26:34.676Z,34.90
2022-10-22T04:29:01.411Z,32.53
2022-10-22T04:31:28.283Z,30.95
2022-10-22T04:33:57.147Z,23.50
2022-10-22T04:36:24.952Z,32.00
2022-10-22T04:38:57.756Z,34.25
2022-10-22T04:41:31.856Z,37.05
2022-10-22T04:43:59.638Z,37.70
2022-10-22T04:46:28.904Z,32.63
2022-10-22T04:48:55.711Z,28.90
2022-10-22T04:51:24.538Z,30.80
2022-10-22T04:53:51.403Z,28.08
2022-10-22T04:56:25.620Z,36.95
2022-10-22T04:59:01.306Z,25.77
2022-10-22T05:01:42.666Z,33.78
2022-10-22T05:04:12.803Z,38.97
2022-10-22T05:06:39.492Z,39.50
2022-10-22T05:09:13.896Z,37.05
2022-10-22T05:11:45.193Z,31.88
2022-10-22T05:14:12.529Z,27.20
2022-10-22T05:16:39.503Z,27.58
2022-10-22T05:19:07.464Z,27.88
2022-10-22T05:21:34.545Z,24.73
2022-10-22T05:24:01.234Z,25.48
2022-10-22T05:26:28.863Z,34.15
2022-10-22T05:28:55.872Z,34.55
2022-10-22T05:31:22.678Z,37.67
2022-10-22T05:33:49.705Z,36.63
2022-10-22T05:36:19.167Z,40.33
2022-10-22T05:38:46.078Z,63.67
2022-10-22T05:41:18.356Z,47.15
2022-10-22T05:43:45.829Z,47.05
2022-10-22T05:46:22.235Z,43.00
2022-10-22T05:48:51.442Z,28.00
2022-10-22T05:51:18.819Z,45.78
2022-10-22T05:53:45.526Z,26.52
2022-10-22T05:56:15.000Z,40.25
2022-10-22T05:58:43.186Z,36.95
2022-10-22T06:01:15.935Z,40.58
2022-10-22T06:03:43.127Z,35.75
2022-10-22T06:06:22.464Z,36.63
2022-10-22T06:08:51.860Z,43.17
2022-10-22T06:11:23.414Z,44.47
2022-10-22T06:13:50.989Z,34.20
2022-10-22T06:16:17.977Z,43.95
2022-10-22T06:18:44.679Z,44.75
2022-10-22T06:21:14.191Z,41.28
2022-10-22T06:23:42.022Z,42.55
2022-10-22T06:26:09.695Z,41.90
2022-10-22T06:28:37.067Z,108.88
2022-10-22T06:31:04.392Z,40.03
2022-10-22T06:33:33.942Z,27.23
2022-10-22T06:36:18.300Z,22.45
2022-10-22T06:38:45.487Z,27.15
2022-10-22T06:41:14.973Z,34.25
2022-10-22T06:43:46.788Z,41.97
2022-10-22T06:46:20.293Z,44.75
2022-10-22T06:48:56.138Z,45.42
2022-10-22T06:51:22.903Z,42.25
2022-10-22T06:53:49.926Z,39.65
2022-10-22T06:56:19.456Z,46.78
2022-10-22T06:58:51.130Z,45.33
2022-10-22T07:01:20.476Z,53.92
2022-10-22T07:03:47.543Z,40.95
2022-10-22T07:06:15.168Z,37.85
2022-10-22T07:08:42.590Z,38.10
2022-10-22T07:11:21.420Z,34.45
2022-10-22T07:13:48.722Z,35.08
2022-10-22T07:16:16.856Z,33.22
2022-10-22T07:18:44.764Z,32.42
2022-10-22T07:21:12.715Z,36.15
2022-10-22T07:23:39.917Z,35.15
2022-10-22T07:26:08.387Z,38.03
2022-10-22T07:28:37.843Z,36.65
2022-10-22T07:31:04.707Z,39.10
2022-10-22T07:33:31.486Z,44.40
2022-10-22T07:36:03.490Z,57.03
2022-10-22T07:38:31.533Z,38.95
2022-10-22T07:40:58.499Z,50.35
2022-10-22T07:43:25.506Z,38.53
2022-10-22T07:45:52.168Z,34.95
2022-10-22T07:48:18.822Z,35.00
2022-10-22T07:50:45.441Z,43.90
2022-10-22T07:53:12.205Z,30.33
2022-10-22T07:55:38.937Z,45.00
2022-10-22T07:58:05.532Z,32.03
2022-10-22T08:00:32.183Z,28.35
2022-10-22T08:02:58.956Z,24.77
2022-10-22T08:05:25.987Z,26.77
2022-10-22T08:07:52.628Z,35.05
2022-10-22T08:10:19.485Z,38.47
2022-10-22T08:12:46.255Z,29.40
2022-10-22T08:15:12.972Z,24.65
2022-10-22T08:17:40.053Z,22.90
2022-10-22T08:20:07.696Z,23.45
2022-10-22T08:22:34.332Z,18.27
2022-10-22T08:25:00.983Z,18.65
2022-10-22T08:27:27.651Z,17.88
2022-10-22T08:29:54.405Z,14.20
2022-10-22T08:32:21.239Z,15.77
2022-10-22T08:34:48.188Z,14.25
2022-10-22T08:37:16.953Z,12.88
2022-10-22T08:39:44.364Z,15.05
2022-10-22T08:42:17.145Z,13.75
2022-10-22T08:44:59.257Z,14.63
2022-10-22T08:47:59.121Z,19.77
2022-10-22T08:50:39.649Z,13.35
2022-10-22T08:53:13.378Z,10.50
2022-10-22T08:55:40.738Z,11.95
2022-10-22T08:58:35.638Z,17.50
2022-10-22T09:01:13.702Z,10.93
2022-10-22T09:03:49.503Z,14.35
2022-10-22T09:06:27.853Z,12.00
2022-10-22T09:08:57.102Z,11.13
2022-10-22T09:11:23.770Z,13.90
2022-10-22T09:13:51.245Z,14.68
2022-10-22T09:16:22.159Z,13.35
2022-10-22T09:19:14.472Z,15.65
2022-10-22T09:22:07.996Z,18.33
2022-10-22T09:24:40.010Z,20.42
2022-10-22T09:27:25.716Z,20.33
2022-10-22T09:29:52.429Z,18.75
2022-10-22T09:32:19.676Z,21.55
2022-10-22T09:34:48.221Z,24.17
2022-10-22T09:37:23.390Z,21.75
2022-10-22T09:39:55.183Z,19.73
2022-10-22T09:42:22.512Z,20.20
2022-10-22T09:44:54.824Z,20.50
2022-10-22T09:48:01.139Z,20.98
2022-10-22T09:50:38.238Z,19.75
2022-10-22T09:53:18.543Z,21.63
2022-10-22T09:55:51.712Z,17.98
2022-10-22T09:58:19.782Z,20.05
2022-10-22T10:00:52.438Z,21.98
2022-10-22T10:03:23.088Z,21.23
2022-10-22T10:05:54.483Z,22.85
2022-10-22T10:08:22.052Z,22.13
2022-10-22T10:10:59.861Z,24.20
2022-10-22T10:13:54.055Z,23.85
2022-10-22T10:16:29.945Z,23.50
2022-10-22T10:19:31.284Z,21.92
2022-10-22T10:22:01.572Z,21.58
2022-10-22T10:24:41.527Z,22.75
2022-10-22T10:27:21.888Z,21.70
2022-10-22T10:30:08.919Z,23.63
2022-10-22T10:33:19.548Z,22.98
2022-10-22T10:35:48.898Z,22.38
2022-10-22T10:38:39.810Z,23.90
2022-10-22T10:41:17.191Z,25.00
2022-10-22T10:44:05.255Z,22.63
2022-10-22T10:47:05.954Z,24.50
2022-10-22T10:49:36.878Z,24.27
2022-10-22T10:52:21.378Z,23.90
2022-10-22T10:55:01.694Z,24.05
2022-10-22T10:57:49.288Z,23.55
2022-10-22T11:00:21.111Z,23.08
2022-10-22T11:03:16.046Z,23.10
2022-10-22T11:05:53.174Z,22.67
2022-10-22T11:08:22.548Z,23.20
2022-10-22T11:10:54.675Z,23.65
2022-10-22T11:13:38.727Z,23.10
2022-10-22T11:16:17.263Z,22.02
2022-10-22T11:18:56.883Z,22.70
2022-10-22T11:21:32.392Z,23.27
2022-10-22T11:24:08.448Z,24.25
2022-10-22T11:26:47.072Z,23.80
2022-10-22T11:29:21.478Z,22.65
2022-10-22T11:31:49.258Z,24.08
2022-10-22T11:34:33.107Z,23.98
2022-10-22T11:37:02.586Z,25.52
2022-10-22T11:39:35.258Z,23.83
2022-10-22T11:42:10.051Z,26.35
2022-10-22T11:45:06.851Z,24.63
2022-10-22T11:47:41.937Z,23.60
2022-10-22T11:50:19.979Z,23.40
2022-10-22T11:53:02.055Z,23.73
2022-10-22T11:55:55.329Z,23.52
2022-10-22T11:58:30.593Z,25.92
2022-10-22T12:01:28.411Z,23.13
2022-10-22T12:03:58.101Z,23.40
2022-10-22T12:06:26.650Z,22.80
2022-10-22T12:08:53.332Z,21.88
2022-10-22T12:11:19.971Z,22.38
2022-10-22T12:14:01.751Z,22.05
2022-10-22T12:16:55.319Z,22.20
2022-10-22T12:19:23.009Z,21.15
2022-10-22T12:21:54.438Z,20.33
2022-10-22T12:24:24.472Z,19.98
2022-10-22T12:26:52.431Z,18.73
2022-10-22T12:29:23.564Z,16.70
2022-10-22T12:31:50.267Z,17.52
2022-10-22T12:34:21.301Z,14.38
2022-10-22T12:36:50.281Z,13.02
2022-10-22T12:39:20.211Z,11.85
2022-10-22T12:41:47.420Z,19.10
2022-10-22T12:44:17.345Z,19.08
2022-10-22T12:46:46.653Z,20.58
2022-10-22T12:49:25.815Z,19.27
2022-10-22T12:51:53.152Z,20.85
2022-10-22T12:54:28.647Z,20.70
2022-10-22T12:56:56.843Z,16.13
2022-10-22T12:59:32.429Z,13.15
2022-10-22T13:01:59.363Z,21.27
2022-10-22T13:04:36.433Z,19.75
2022-10-22T13:07:12.235Z,15.48
2022-10-22T13:09:40.071Z,18.67
2022-10-22T13:12:10.539Z,11.80
2022-10-22T13:14:38.538Z,13.18
2022-10-22T13:17:16.979Z,14.63
2022-10-22T13:19:48.521Z,15.95
2022-10-22T13:22:26.915Z,14.55
2022-10-22T13:24:54.286Z,15.05
2022-10-22T13:27:20.988Z,16.63
2022-10-22T13:29:47.656Z,18.52
2022-10-22T13:32:41.660Z,18.77
2022-10-22T13:35:15.077Z,17.60
2022-10-22T13:37:41.829Z,19.55
2022-10-22T13:40:15.733Z,19.13
2022-10-22T13:42:42.746Z,19.63
2022-10-22T13:45:09.827Z,19.92
2022-10-22T13:47:36.536Z,19.00
2022-10-22T13:50:07.212Z,19.40
2022-10-22T13:52:42.237Z,18.85
2022-10-22T13:55:25.509Z,18.63
2022-10-22T13:58:13.845Z,19.33
2022-10-22T14:00:43.868Z,21.30
2022-10-22T14:03:13.289Z,22.67
2022-10-22T14:05:40.028Z,20.10
2022-10-22T14:08:18.241Z,24.50
2022-10-22T14:10:45.139Z,21.35
2022-10-22T14:13:13.537Z,21.38
2022-10-22T14:15:41.334Z,22.75
2022-10-22T14:18:11.478Z,22.73
2022-10-22T14:20:40.929Z,21.80
2022-10-22T14:25:52.633Z,22.42
2022-10-22T14:28:19.859Z,23.52
2022-10-22T14:30:47.625Z,24.55
2022-10-22T14:33:32.663Z,22.67
2022-10-22T14:36:00.466Z,23.83
2022-10-22T14:38:27.802Z,22.50
2022-10-22T14:40:54.735Z,24.48
2022-10-22T14:43:26.915Z,24.05
2022-10-22T14:45:53.950Z,21.70
2022-10-22T14:48:20.666Z,24.17
2022-10-22T14:50:48.515Z,24.55
2022-10-22T14:53:16.672Z,24.63
2022-10-22T14:55:44.754Z,24.48
2022-10-22T14:58:12.249Z,24.30
2022-10-22T15:00:41.433Z,25.38
2022-10-22T15:03:08.116Z,24.63
2022-10-22T15:05:36.145Z,21.83
2022-10-22T15:08:03.135Z,22.80
2022-10-22T15:10:29.747Z,23.50
2022-10-22T15:12:56.377Z,21.38
2022-10-22T15:15:23.791Z,22.15
2022-10-22T15:17:52.246Z,23.05
2022-10-22T15:20:18.917Z,23.45
2022-10-22T15:22:45.602Z,23.25
2022-10-22T15:25:13.520Z,21.20
2022-10-22T15:27:40.291Z,21.30
2022-10-22T15:30:08.091Z,21.77
2022-10-22T15:32:34.775Z,22.25
2022-10-22T15:35:01.678Z,22.45
2022-10-22T15:37:28.355Z,22.40
2022-10-22T15:39:55.043Z,23.25
2022-10-22T15:42:23.148Z,22.52
2022-10-22T15:44:56.614Z,21.75
2022-10-22T15:47:25.151Z,19.73
2022-10-22T15:49:51.911Z,19.13
2022-10-22T15:52:18.732Z,22.27
2022-10-22T15:54:45.519Z,19.08
2022-10-22T15:57:12.181Z,18.25
2022-10-22T15:59:38.907Z,18.85
2022-10-22T16:02:07.169Z,18.10
2022-10-22T16:04:33.832Z,19.00
2022-10-22T16:07:00.577Z,17.55
2022-10-22T16:09:27.929Z,17.42
2022-10-22T16:11:55.836Z,18.85
2022-10-22T16:14:23.974Z,19.67
2022-10-22T16:16:52.712Z,18.80
2022-10-22T16:19:21.825Z,17.52
2022-10-22T16:21:53.886Z,17.90
2022-10-22T16:24:21.132Z,17.52
2022-10-22T16:26:48.328Z,17.92
2022-10-22T16:29:15.125Z,17.13
2022-10-22T16:31:43.517Z,16.48
2022-10-22T16:34:10.519Z,16.50
2022-10-22T16:36:38.135Z,17.30
2022-10-22T16:39:05.966Z,18.67
2022-10-22T16:41:36.205Z,17.15
2022-10-22T16:44:06.043Z,18.58
2022-10-22T16:46:33.547Z,17.05
2022-10-22T16:49:00.359Z,17.95
2022-10-22T16:51:28.125Z,18.40
2022-10-22T16:53:56.503Z,17.00
2022-10-22T16:56:24.132Z,17.58
2022-10-22T16:58:53.660Z,18.08
2022-10-22T17:01:29.633Z,17.73
2022-10-22T17:03:59.140Z,18.00
2022-10-22T17:06:26.648Z,18.85
2022-10-22T17:08:54.015Z,25.23
2022-10-22T17:11:23.241Z,24.95
2022-10-22T17:13:54.177Z,32.83
2022-10-22T17:16:24.823Z,22.50
2022-10-22T17:18:53.732Z,24.95
2022-10-22T17:21:21.491Z,23.88
2022-10-22T17:23:49.382Z,20.70
2022-10-22T17:26:20.244Z,22.88
2022-10-22T17:28:47.819Z,25.67
2022-10-22T17:31:32.484Z,26.58
2022-10-22T17:33:59.910Z,24.55
2022-10-22T17:36:30.439Z,25.33
2022-10-22T17:39:02.015Z,23.33
2022-10-22T17:41:34.110Z,23.17
2022-10-22T17:44:04.581Z,24.50
2022-10-22T17:46:32.356Z,25.30
2022-10-22T17:49:03.799Z,20.98
2022-10-22T17:51:31.862Z,21.83
2022-10-22T17:53:58.947Z,18.80
2022-10-22T17:56:27.926Z,23.77
2022-10-22T17:58:55.472Z,19.60
2022-10-22T18:01:33.761Z,17.95
2022-10-22T18:04:03.563Z,20.88
2022-10-22T18:06:30.648Z,18.98
2022-10-22T18:08:57.610Z,18.73
2022-10-22T18:11:27.909Z,22.45
2022-10-22T18:13:56.639Z,25.10
2022-10-22T18:16:23.530Z,29.45
2022-10-22T18:18:53.055Z,33.78
2022-10-22T18:21:20.878Z,40.80
2022-10-22T18:23:47.554Z,35.30
2022-10-22T18:26:15.528Z,30.98
2022-10-22T18:28:42.264Z,28.48
2022-10-22T18:31:12.301Z,25.35
2022-10-22T18:33:39.986Z,23.23
2022-10-22T18:36:10.514Z,24.15
2022-10-22T18:38:38.246Z,25.98
2022-10-22T18:41:13.132Z,30.90
2022-10-22T18:43:39.864Z,22.17
2022-10-22T18:46:07.750Z,18.95
2022-10-22T18:48:35.506Z,24.88
2022-10-22T18:51:09.478Z,29.38
2022-10-22T18:53:37.296Z,27.13
2022-10-22T18:56:08.960Z,22.50
2022-10-22T18:58:39.752Z,17.35
2022-10-22T19:01:08.646Z,27.25
2022-10-22T19:03:35.460Z,32.10
2022-10-22T19:06:02.072Z,25.23
2022-10-22T19:08:28.905Z,27.13
2022-10-22T19:10:55.539Z,26.50
2022-10-22T19:13:23.315Z,24.55
2022-10-22T19:15:49.958Z,28.23
2022-10-22T19:18:16.624Z,26.48
2022-10-22T19:20:46.401Z,28.30
2022-10-22T19:23:17.206Z,24.40
2022-10-22T19:25:47.261Z,31.17
2022-10-22T19:28:13.873Z,30.63
2022-10-22T19:30:44.444Z,23.65
2022-10-22T19:33:11.185Z,20.85
2022-10-22T19:35:37.865Z,29.55
2022-10-22T19:38:04.515Z,25.92
2022-10-22T19:40:31.122Z,31.55
2022-10-22T19:42:57.782Z,26.30
2022-10-22T19:45:24.530Z,23.23
2022-10-22T19:47:51.175Z,26.77
2022-10-22T19:50:17.914Z,25.70
2022-10-22T19:52:44.710Z,21.23
2022-10-22T19:55:11.609Z,21.33
2022-10-22T19:57:38.772Z,28.00
2022-10-22T20:00:06.414Z,28.33
2022-10-22T20:02:36.948Z,21.08
2022-10-22T20:05:03.939Z,20.40
2022-10-22T20:07:30.586Z,23.73
2022-10-22T20:09:57.269Z,33.67
2022-10-22T20:12:23.975Z,22.50
2022-10-22T20:14:51.562Z,33.60
2022-10-22T20:17:18.269Z,23.75
2022-10-22T20:19:44.952Z,27.25
2022-10-22T20:22:14.962Z,25.40
2022-10-22T20:24:45.000Z,25.50
2022-10-22T20:27:13.044Z,17.88
2022-10-22T20:29:39.718Z,23.15
2022-10-22T20:32:08.741Z,16.60
2022-10-22T20:34:35.676Z,31.10
2022-10-22T20:37:02.584Z,19.63
2022-10-22T20:39:29.275Z,20.25
2022-10-22T20:41:55.902Z,23.02
2022-10-22T20:44:22.576Z,21.60
2022-10-22T20:46:51.106Z,18.80
2022-10-22T20:49:20.513Z,26.10
2022-10-22T20:51:47.458Z,27.80
2022-10-22T20:54:15.028Z,30.77
2022-10-22T20:56:42.549Z,26.50
2022-10-22T20:59:10.932Z,35.55
2022-10-22T21:01:55.827Z,18.90
2022-10-22T21:04:22.600Z,20.67
2022-10-22T21:06:50.388Z,24.65
2022-10-22T21:09:17.240Z,18.42
2022-10-22T21:11:44.088Z,25.38
2022-10-22T21:14:12.690Z,27.63
2022-10-22T21:16:50.587Z,26.75
2022-10-22T21:19:18.584Z,24.02
2022-10-22T21:21:45.296Z,24.38
2022-10-22T21:24:12.461Z,19.00
2022-10-22T21:26:40.702Z,37.53
2022-10-22T21:29:08.740Z,22.50
2022-10-22T21:31:35.436Z,26.65
2022-10-22T21:34:02.063Z,24.13
2022-10-22T21:36:29.108Z,29.65
2022-10-22T21:38:55.885Z,36.15
2022-10-22T21:41:23.776Z,21.77
2022-10-22T21:43:51.216Z,18.23
2022-10-22T21:46:23.218Z,20.98
2022-10-22T21:48:55.711Z,22.70
2022-10-22T21:51:24.234Z,19.60
2022-10-22T21:56:21.580Z,18.42
2022-10-22T21:58:48.227Z,19.45
2022-10-22T22:01:15.654Z,22.08
2022-10-22T22:03:45.372Z,24.63
2022-10-22T22:06:12.931Z,23.27
2022-10-22T22:08:40.169Z,23.80
2022-10-22T22:11:09.481Z,18.45
2022-10-22T22:13:36.456Z,23.17
2022-10-22T22:16:09.152Z,16.00
2022-10-22T22:18:38.503Z,19.15
2022-10-22T22:21:07.964Z,17.30
2022-10-22T22:23:37.418Z,17.55
2022-10-22T22:26:05.181Z,14.50
2022-10-22T22:28:33.407Z,16.58
2022-10-22T22:31:00.405Z,13.52
2022-10-22T22:33:27.540Z,17.20
2022-10-22T22:35:58.730Z,23.83
2022-10-22T22:38:25.397Z,24.63
2022-10-22T22:40:51.995Z,25.05
2022-10-22T22:43:18.712Z,22.15
2022-10-22T22:45:45.384Z,18.80
2022-10-22T22:48:11.974Z,20.83
2022-10-22T22:50:38.639Z,24.25
2022-10-22T22:53:05.245Z,16.63
2022-10-22T22:55:32.338Z,14.20
2022-10-22T22:57:58.982Z,18.13
2022-10-22T23:00:25.770Z,21.13
2022-10-22T23:02:55.824Z,24.02
2022-10-22T23:05:22.648Z,26.23
2022-10-22T23:07:49.327Z,20.10
2022-10-22T23:10:16.139Z,23.23
2022-10-22T23:12:43.463Z,21.40
2022-10-22T23:15:10.935Z,17.73
2022-10-22T23:17:38.422Z,16.23
2022-10-22T23:20:05.675Z,17.50
2022-10-22T23:22:32.388Z,21.65
2022-10-22T23:24:59.056Z,14.88
2022-10-22T23:27:25.734Z,22.95
2022-10-22T23:29:52.355Z,22.20
2022-10-22T23:32:19.078Z,17.77
2022-10-22T23:34:45.701Z,15.68
2022-10-22T23:37:12.468Z,22.05
2022-10-22T23:39:39.144Z,17.58
2022-10-22T23:42:05.865Z,24.60
2022-10-22T23:44:32.642Z,18.17
2022-10-22T23:46:59.322Z,15.20
2022-10-22T23:49:26.016Z,19.13
2022-10-22T23:51:52.699Z,18.08
2022-10-22T23:54:19.716Z,25.80
2022-10-22T23:56:47.087Z,19.58
